createdAt,value
2019-03-30T00:00:05.088Z,11.81
2019-03-30T00:01:05.109Z,11.75
2019-03-30T00:02:05.120Z,11.77
2019-03-30T00:03:05.151Z,11.73
2019-03-30T00:04:05.150Z,11.81
2019-03-30T00:05:05.167Z,11.83
2019-03-30T00:06:05.174Z,11.80
2019-03-30T00:07:05.194Z,11.80
2019-03-30T00:08:05.216Z,11.75
2019-03-30T00:09:05.223Z,11.86
2019-03-30T00:10:05.244Z,11.87
2019-03-30T00:11:05.251Z,11.94
2019-03-30T00:12:05.263Z,11.80
2019-03-30T00:13:05.280Z,11.86
2019-03-30T00:14:05.296Z,11.90
2019-03-30T00:15:05.342Z,11.87
2019-03-30T00:16:05.330Z,11.73
2019-03-30T00:17:05.335Z,11.83
2019-03-30T00:18:05.894Z,11.91
2019-03-30T00:19:05.380Z,11.90
2019-03-30T00:20:05.524Z,11.84
2019-03-30T00:21:05.399Z,11.99
2019-03-30T00:22:05.427Z,11.99
2019-03-30T00:23:05.423Z,11.97
2019-03-30T00:24:05.531Z,11.87
2019-03-30T00:25:05.455Z,11.72
2019-03-30T00:26:05.480Z,11.78
2019-03-30T00:27:05.481Z,11.70
2019-03-30T00:28:05.511Z,11.69
2019-03-30T00:29:05.518Z,11.68
2019-03-30T00:30:05.528Z,11.55
2019-03-30T00:31:05.539Z,11.51
2019-03-30T00:32:05.564Z,11.51
2019-03-30T00:33:05.572Z,11.45
2019-03-30T00:34:05.585Z,11.41
2019-03-30T00:35:05.597Z,11.36
2019-03-30T00:36:05.621Z,11.25
2019-03-30T00:37:05.627Z,11.30
2019-03-30T00:38:05.664Z,11.25
2019-03-30T00:39:05.655Z,11.22
2019-03-30T00:40:05.667Z,11.25
2019-03-30T00:41:05.691Z,11.27
2019-03-30T00:42:05.707Z,11.22
2019-03-30T00:43:05.715Z,11.23
2019-03-30T00:44:05.729Z,11.19
2019-03-30T00:45:05.748Z,11.12
2019-03-30T00:46:05.754Z,11.15
2019-03-30T00:47:05.775Z,11.07
2019-03-30T00:48:05.787Z,11.07
2019-03-30T00:49:05.801Z,11.00
2019-03-30T00:50:05.815Z,10.97
2019-03-30T00:51:05.825Z,10.96
2019-03-30T00:52:05.843Z,10.96
2019-03-30T00:53:05.857Z,10.94
2019-03-30T00:54:05.878Z,10.87
2019-03-30T00:55:05.884Z,10.84
2019-03-30T00:56:05.905Z,10.87
2019-03-30T00:57:05.911Z,10.92
2019-03-30T00:58:05.943Z,10.94
2019-03-30T00:59:05.951Z,10.99
2019-03-30T01:00:06.091Z,10.87
2019-03-30T01:01:05.978Z,10.96
2019-03-30T01:02:05.986Z,10.89
2019-03-30T01:03:06.002Z,10.78
2019-03-30T01:04:06.016Z,10.81
2019-03-30T01:05:06.026Z,10.76
2019-03-30T01:06:06.114Z,10.72
2019-03-30T01:07:06.060Z,10.81
2019-03-30T01:08:06.068Z,10.86
2019-03-30T01:09:06.086Z,10.76
2019-03-30T01:10:06.095Z,10.79
2019-03-30T01:11:06.113Z,10.79
2019-03-30T01:12:06.123Z,10.81
2019-03-30T01:13:06.135Z,10.90
2019-03-30T01:14:06.146Z,10.81
2019-03-30T01:15:06.173Z,10.81
2019-03-30T01:16:06.183Z,10.76
2019-03-30T01:17:06.195Z,10.81
2019-03-30T01:18:06.209Z,10.81
2019-03-30T01:19:06.226Z,10.64
2019-03-30T01:20:06.233Z,10.67
2019-03-30T01:21:06.251Z,10.67
2019-03-30T01:22:06.264Z,10.63
2019-03-30T01:23:06.278Z,10.64
2019-03-30T01:24:06.294Z,10.64
2019-03-30T01:25:06.310Z,10.72
2019-03-30T01:26:06.323Z,10.63
2019-03-30T01:27:06.332Z,10.72
2019-03-30T01:28:06.357Z,10.67
2019-03-30T01:29:06.367Z,10.71
2019-03-30T01:30:06.381Z,10.68
2019-03-30T01:31:06.390Z,10.64
2019-03-30T01:32:06.404Z,10.67
2019-03-30T01:33:06.424Z,10.69
2019-03-30T01:34:06.431Z,10.53
2019-03-30T01:35:06.482Z,10.46
2019-03-30T01:36:06.547Z,10.48
2019-03-30T01:37:06.483Z,10.42
2019-03-30T01:38:06.489Z,10.35
2019-03-30T01:39:06.519Z,10.34
2019-03-30T01:40:06.521Z,10.40
2019-03-30T01:41:06.530Z,10.42
2019-03-30T01:42:06.545Z,10.41
2019-03-30T01:43:06.564Z,10.38
2019-03-30T01:44:06.569Z,10.33
2019-03-30T01:45:06.585Z,10.35
2019-03-30T01:46:06.597Z,10.31
2019-03-30T01:47:06.611Z,10.38
2019-03-30T01:48:06.623Z,10.33
2019-03-30T01:49:06.642Z,10.40
2019-03-30T01:50:17.052Z,10.41
2019-03-30T01:51:06.666Z,10.42
2019-03-30T01:52:06.683Z,10.41
2019-03-30T01:53:06.696Z,10.46
2019-03-30T01:54:06.704Z,10.46
2019-03-30T01:55:06.722Z,10.35
2019-03-30T01:56:06.736Z,10.38
2019-03-30T01:57:06.750Z,10.28
2019-03-30T01:58:06.782Z,10.12
2019-03-30T01:59:06.776Z,10.16
2019-03-30T02:00:06.792Z,10.16
2019-03-30T02:01:06.812Z,10.13
2019-03-30T02:02:06.816Z,10.13
2019-03-30T02:03:06.834Z,10.07
2019-03-30T02:04:06.849Z,10.16
2019-03-30T02:05:06.869Z,10.16
2019-03-30T02:06:06.875Z,10.20
2019-03-30T02:07:06.937Z,10.15
2019-03-30T02:08:06.899Z,10.16
2019-03-30T02:09:06.921Z,10.15
2019-03-30T02:10:06.923Z,10.19
2019-03-30T02:11:06.963Z,10.25
2019-03-30T02:12:06.951Z,10.23
2019-03-30T02:13:06.969Z,10.22
2019-03-30T02:14:06.971Z,10.23
2019-03-30T02:15:06.999Z,10.22
2019-03-30T02:16:07.007Z,10.09
2019-03-30T02:17:07.021Z,10.13
2019-03-30T02:18:07.037Z,10.12
2019-03-30T02:19:07.053Z,10.01
2019-03-30T02:20:07.061Z,9.98
2019-03-30T02:21:07.077Z,9.99
2019-03-30T02:22:07.089Z,9.99
2019-03-30T02:23:07.101Z,9.97
2019-03-30T02:24:07.119Z,10.02
2019-03-30T02:25:07.133Z,9.97
2019-03-30T02:26:07.147Z,10.01
2019-03-30T02:27:07.160Z,10.16
2019-03-30T02:28:07.360Z,10.16
2019-03-30T02:29:07.186Z,10.13
2019-03-30T02:30:07.205Z,10.15
2019-03-30T02:31:07.233Z,10.16
2019-03-30T02:32:07.227Z,10.12
2019-03-30T02:33:07.240Z,10.12
2019-03-30T02:34:07.257Z,10.04
2019-03-30T02:35:07.267Z,9.89
2019-03-30T02:36:07.297Z,9.86
2019-03-30T02:37:07.296Z,9.82
2019-03-30T02:38:07.496Z,9.79
2019-03-30T02:39:07.318Z,9.86
2019-03-30T02:40:07.386Z,9.80
2019-03-30T02:41:07.348Z,9.83
2019-03-30T02:42:07.367Z,9.83
2019-03-30T02:43:07.379Z,9.86
2019-03-30T02:44:07.377Z,9.84
2019-03-30T02:45:07.401Z,9.77
2019-03-30T02:46:07.462Z,9.86
2019-03-30T02:47:07.435Z,9.79
2019-03-30T02:48:07.545Z,9.79
2019-03-30T02:49:07.459Z,9.65
2019-03-30T02:50:07.484Z,9.65
2019-03-30T02:51:07.481Z,9.68
2019-03-30T02:52:07.533Z,9.73
2019-03-30T02:53:07.633Z,9.72
2019-03-30T02:54:07.531Z,9.62
2019-03-30T02:55:12.283Z,9.65
2019-03-30T02:56:07.547Z,9.64
2019-03-30T02:57:07.570Z,9.51
2019-03-30T02:58:07.582Z,9.54
2019-03-30T02:59:07.596Z,9.47
2019-03-30T03:00:07.610Z,9.44
2019-03-30T03:01:07.611Z,9.46
2019-03-30T03:02:07.632Z,9.37
2019-03-30T03:03:07.650Z,9.44
2019-03-30T03:04:07.660Z,9.34
2019-03-30T03:05:07.675Z,9.36
2019-03-30T03:06:07.683Z,9.41
2019-03-30T03:07:07.695Z,9.32
2019-03-30T03:08:07.710Z,9.36
2019-03-30T03:09:07.719Z,9.32
2019-03-30T03:10:07.735Z,9.28
2019-03-30T03:11:07.761Z,9.18
2019-03-30T03:12:07.769Z,9.19
2019-03-30T03:13:07.778Z,9.14
2019-03-30T03:14:07.789Z,9.11
2019-03-30T03:15:07.802Z,9.00
2019-03-30T03:16:07.832Z,9.02
2019-03-30T03:17:07.826Z,9.03
2019-03-30T03:18:07.857Z,8.94
2019-03-30T03:19:07.860Z,9.10
2019-03-30T03:20:07.889Z,9.16
2019-03-30T03:21:08.884Z,9.16
2019-03-30T03:22:07.893Z,9.19
2019-03-30T03:23:08.406Z,9.23
2019-03-30T03:24:07.920Z,9.26
2019-03-30T03:25:07.944Z,9.21
2019-03-30T03:26:07.948Z,9.29
2019-03-30T03:27:08.903Z,9.23
2019-03-30T03:28:07.972Z,9.19
2019-03-30T03:29:07.982Z,9.14
2019-03-30T03:30:07.997Z,9.19
2019-03-30T03:31:08.906Z,9.29
2019-03-30T03:32:08.027Z,9.19
2019-03-30T03:33:08.055Z,9.16
2019-03-30T03:34:08.058Z,9.13
2019-03-30T03:35:08.085Z,9.23
2019-03-30T03:36:08.073Z,9.28
2019-03-30T03:37:08.091Z,9.19
2019-03-30T03:38:08.101Z,9.23
2019-03-30T03:39:08.111Z,9.19
2019-03-30T03:40:08.128Z,9.18
2019-03-30T03:41:08.235Z,9.21
2019-03-30T03:42:08.153Z,9.16
2019-03-30T03:43:08.164Z,9.16
2019-03-30T03:44:08.181Z,9.18
2019-03-30T03:45:08.201Z,9.19
2019-03-30T03:46:08.205Z,9.18
2019-03-30T03:47:08.213Z,9.19
2019-03-30T03:48:08.229Z,9.19
2019-03-30T03:49:08.256Z,9.19
2019-03-30T03:50:08.258Z,9.19
2019-03-30T03:51:25.118Z,9.16
2019-03-30T03:52:08.280Z,9.19
2019-03-30T03:53:08.299Z,9.19
2019-03-30T03:54:08.315Z,9.19
2019-03-30T03:55:08.316Z,9.25
2019-03-30T03:56:08.334Z,9.26
2019-03-30T03:57:08.352Z,9.25
2019-03-30T03:58:08.361Z,9.26
2019-03-30T03:59:08.369Z,9.29
2019-03-30T04:00:08.390Z,9.25
2019-03-30T04:01:08.397Z,9.18
2019-03-30T04:02:08.407Z,9.14
2019-03-30T04:03:08.431Z,9.18
2019-03-30T04:04:08.528Z,9.18
2019-03-30T04:05:08.463Z,9.11
2019-03-30T04:06:08.483Z,9.16
2019-03-30T04:07:08.474Z,9.11
2019-03-30T04:08:08.496Z,9.04
2019-03-30T04:09:08.505Z,9.06
2019-03-30T04:10:08.516Z,8.99
2019-03-30T04:11:08.533Z,8.97
2019-03-30T04:12:08.544Z,8.99
2019-03-30T04:13:08.553Z,8.91
2019-03-30T04:14:08.565Z,8.89
2019-03-30T04:15:08.586Z,8.89
2019-03-30T04:16:08.596Z,8.91
2019-03-30T04:17:08.612Z,8.89
2019-03-30T04:18:08.622Z,8.97
2019-03-30T04:19:08.635Z,8.89
2019-03-30T04:20:08.653Z,8.82
2019-03-30T04:21:08.657Z,8.81
2019-03-30T04:22:08.690Z,8.82
2019-03-30T04:23:08.691Z,8.84
2019-03-30T04:24:08.700Z,8.78
2019-03-30T04:25:08.717Z,8.84
2019-03-30T04:26:08.740Z,8.81
2019-03-30T04:27:08.746Z,8.70
2019-03-30T04:28:08.753Z,8.70
2019-03-30T04:29:08.761Z,8.73
2019-03-30T04:30:08.769Z,8.64
2019-03-30T04:31:08.789Z,8.64
2019-03-30T04:32:08.803Z,8.74
2019-03-30T04:33:08.816Z,8.71
2019-03-30T04:34:08.827Z,8.71
2019-03-30T04:35:08.835Z,8.70
2019-03-30T04:36:08.849Z,8.69
2019-03-30T04:37:08.866Z,8.70
2019-03-30T04:38:08.876Z,8.78
2019-03-30T04:39:08.886Z,8.70
2019-03-30T04:40:08.896Z,8.76
2019-03-30T04:41:08.906Z,8.74
2019-03-30T04:42:08.928Z,8.79
2019-03-30T04:43:08.937Z,8.70
2019-03-30T04:44:08.952Z,8.71
2019-03-30T04:45:08.964Z,8.78
2019-03-30T04:46:08.976Z,8.78
2019-03-30T04:47:08.988Z,8.70
2019-03-30T04:48:09.002Z,8.74
2019-03-30T04:49:09.012Z,8.74
2019-03-30T04:50:09.028Z,8.76
2019-03-30T04:51:09.044Z,8.84
2019-03-30T04:52:09.054Z,8.73
2019-03-30T04:53:09.073Z,8.79
2019-03-30T04:54:09.075Z,8.73
2019-03-30T04:55:09.090Z,8.78
2019-03-30T04:56:09.103Z,8.71
2019-03-30T04:57:09.121Z,8.81
2019-03-30T04:58:09.655Z,8.81
2019-03-30T04:59:09.143Z,8.70
2019-03-30T05:00:09.156Z,8.78
2019-03-30T05:01:09.171Z,8.70
2019-03-30T05:02:09.181Z,8.69
2019-03-30T05:03:09.201Z,8.71
2019-03-30T05:04:09.204Z,8.74
2019-03-30T05:05:09.220Z,8.73
2019-03-30T05:06:09.235Z,8.69
2019-03-30T05:07:09.241Z,8.70
2019-03-30T05:08:09.255Z,8.76
2019-03-30T05:09:09.271Z,8.82
2019-03-30T05:10:09.281Z,8.88
2019-03-30T05:11:09.294Z,8.94
2019-03-30T05:12:09.307Z,9.00
2019-03-30T05:13:09.319Z,8.99
2019-03-30T05:14:09.329Z,8.99
2019-03-30T05:15:09.345Z,9.02
2019-03-30T05:16:09.363Z,8.94
2019-03-30T05:17:09.376Z,8.88
2019-03-30T05:18:09.380Z,8.88
2019-03-30T05:19:09.395Z,8.92
2019-03-30T05:20:09.413Z,8.85
2019-03-30T05:21:09.421Z,8.85
2019-03-30T05:22:12.753Z,8.81
2019-03-30T05:23:09.449Z,8.70
2019-03-30T05:24:09.459Z,8.76
2019-03-30T05:25:09.477Z,8.84
2019-03-30T05:26:09.505Z,8.74
2019-03-30T05:27:09.497Z,8.78
2019-03-30T05:28:09.557Z,8.81
2019-03-30T05:29:09.525Z,8.84
2019-03-30T05:30:09.538Z,8.78
2019-03-30T05:31:09.546Z,8.82
2019-03-30T05:32:09.567Z,8.82
2019-03-30T05:33:09.573Z,8.71
2019-03-30T05:34:09.598Z,8.79
2019-03-30T05:35:09.602Z,8.85
2019-03-30T05:36:09.615Z,8.76
2019-03-30T05:37:09.621Z,8.88
2019-03-30T05:38:09.657Z,8.87
2019-03-30T05:39:09.650Z,8.89
2019-03-30T05:40:09.683Z,8.88
2019-03-30T05:41:09.680Z,8.73
2019-03-30T05:42:09.692Z,8.76
2019-03-30T05:43:09.705Z,8.76
2019-03-30T05:44:09.713Z,8.66
2019-03-30T05:45:09.726Z,8.67
2019-03-30T05:46:09.742Z,8.67
2019-03-30T05:47:09.749Z,8.70
2019-03-30T05:48:09.759Z,8.78
2019-03-30T05:49:09.845Z,8.84
2019-03-30T05:50:09.789Z,8.82
2019-03-30T05:51:09.803Z,8.92
2019-03-30T05:52:09.816Z,8.94
2019-03-30T05:53:09.821Z,8.99
2019-03-30T05:54:09.837Z,9.10
2019-03-30T05:55:09.855Z,9.14
2019-03-30T05:56:09.870Z,9.04
2019-03-30T05:57:09.877Z,8.95
2019-03-30T05:58:09.889Z,8.89
2019-03-30T05:59:09.901Z,9.00
2019-03-30T06:00:09.917Z,8.85
2019-03-30T06:01:09.939Z,8.76
2019-03-30T06:02:09.946Z,8.78
2019-03-30T06:03:09.949Z,8.73
2019-03-30T06:04:09.965Z,8.82
2019-03-30T06:05:10.077Z,8.78
2019-03-30T06:06:09.993Z,8.92
2019-03-30T06:07:10.141Z,9.02
2019-03-30T06:08:10.087Z,9.14
2019-03-30T06:09:10.035Z,9.16
2019-03-30T06:10:10.045Z,9.18
2019-03-30T06:11:10.058Z,9.19
2019-03-30T06:12:10.072Z,9.18
2019-03-30T06:13:10.166Z,9.23
2019-03-30T06:14:10.097Z,9.10
2019-03-30T06:15:10.113Z,9.08
2019-03-30T06:16:10.119Z,9.02
2019-03-30T06:17:10.138Z,9.00
2019-03-30T06:18:11.429Z,8.97
2019-03-30T06:19:10.157Z,8.94
2019-03-30T06:20:10.169Z,9.00
2019-03-30T06:21:10.188Z,8.95
2019-03-30T06:22:10.192Z,8.95
2019-03-30T06:23:10.213Z,9.03
2019-03-30T06:24:10.221Z,9.06
2019-03-30T06:25:10.236Z,9.19
2019-03-30T06:26:10.243Z,9.14
2019-03-30T06:27:10.261Z,9.23
2019-03-30T06:28:10.275Z,9.40
2019-03-30T06:29:10.285Z,9.44
2019-03-30T06:30:10.297Z,9.43
2019-03-30T06:31:10.311Z,9.43
2019-03-30T06:32:10.318Z,9.46
2019-03-30T06:33:10.339Z,9.61
2019-03-30T06:34:10.347Z,9.65
2019-03-30T06:35:10.359Z,9.72
2019-03-30T06:36:10.370Z,9.66
2019-03-30T06:37:10.388Z,9.68
2019-03-30T06:38:10.399Z,9.66
2019-03-30T06:39:10.414Z,9.68
2019-03-30T06:40:10.426Z,9.68
2019-03-30T06:41:10.442Z,9.69
2019-03-30T06:42:10.451Z,9.59
2019-03-30T06:43:10.470Z,9.73
2019-03-30T06:44:10.474Z,9.83
2019-03-30T06:45:10.493Z,9.86
2019-03-30T06:46:10.506Z,9.95
2019-03-30T06:47:10.516Z,9.92
2019-03-30T06:48:10.534Z,9.92
2019-03-30T06:49:10.558Z,9.92
2019-03-30T06:50:10.554Z,9.91
2019-03-30T06:51:10.566Z,9.89
2019-03-30T06:52:10.580Z,9.89
2019-03-30T06:53:10.600Z,9.92
2019-03-30T06:54:10.631Z,9.97
2019-03-30T06:55:10.624Z,9.92
2019-03-30T06:56:10.630Z,9.92
2019-03-30T06:57:10.651Z,9.99
2019-03-30T06:58:10.699Z,9.98
2019-03-30T06:59:10.681Z,10.02
2019-03-30T07:00:10.691Z,10.04
2019-03-30T07:01:10.701Z,10.09
2019-03-30T07:02:10.715Z,10.16
2019-03-30T07:03:10.730Z,10.34
2019-03-30T07:04:11.347Z,10.35
2019-03-30T07:05:10.800Z,10.41
2019-03-30T07:06:10.769Z,10.41
2019-03-30T07:07:10.783Z,10.42
2019-03-30T07:08:10.801Z,10.41
2019-03-30T07:09:10.807Z,10.53
2019-03-30T07:10:10.821Z,10.61
2019-03-30T07:11:21.162Z,10.54
2019-03-30T07:12:10.852Z,10.54
2019-03-30T07:13:10.863Z,10.37
2019-03-30T07:14:10.866Z,10.40
2019-03-30T07:15:10.889Z,10.59
2019-03-30T07:16:10.905Z,10.63
2019-03-30T07:17:10.921Z,10.53
2019-03-30T07:18:10.939Z,10.61
2019-03-30T07:19:10.945Z,10.64
2019-03-30T07:20:10.976Z,10.59
2019-03-30T07:21:10.981Z,10.59
2019-03-30T07:22:10.990Z,10.61
2019-03-30T07:23:12.626Z,10.69
2019-03-30T07:24:11.011Z,10.84
2019-03-30T07:25:11.027Z,10.81
2019-03-30T07:26:11.055Z,10.81
2019-03-30T07:27:11.055Z,10.89
2019-03-30T07:28:11.067Z,11.12
2019-03-30T07:29:11.087Z,11.17
2019-03-30T07:30:11.095Z,11.26
2019-03-30T07:31:11.111Z,11.19
2019-03-30T07:32:11.123Z,11.23
2019-03-30T07:33:11.135Z,11.37
2019-03-30T07:34:11.155Z,11.36
2019-03-30T07:35:11.157Z,11.40
2019-03-30T07:36:11.177Z,11.36
2019-03-30T07:37:11.198Z,11.44
2019-03-30T07:38:11.218Z,11.50
2019-03-30T07:39:11.221Z,11.63
2019-03-30T07:40:11.232Z,11.77
2019-03-30T07:41:11.252Z,11.86
2019-03-30T07:42:11.264Z,11.94
2019-03-30T07:43:11.277Z,11.99
2019-03-30T07:44:11.293Z,12.09
2019-03-30T07:45:11.312Z,12.10
2019-03-30T07:46:11.324Z,12.12
2019-03-30T07:47:11.332Z,12.22
2019-03-30T07:48:11.348Z,12.20
2019-03-30T07:49:11.363Z,12.12
2019-03-30T07:50:11.379Z,12.09
2019-03-30T07:51:11.398Z,12.15
2019-03-30T07:52:11.416Z,12.15
2019-03-30T07:53:25.218Z,12.24
2019-03-30T07:54:11.444Z,12.24
2019-03-30T07:55:11.454Z,12.02
2019-03-30T07:56:11.462Z,11.88
2019-03-30T07:57:17.108Z,11.87
2019-03-30T07:58:12.447Z,12.00
2019-03-30T07:59:11.510Z,12.07
2019-03-30T08:00:11.528Z,12.18
2019-03-30T08:01:11.540Z,12.20
2019-03-30T08:02:11.558Z,12.29
2019-03-30T08:03:11.570Z,12.32
2019-03-30T08:04:11.591Z,12.36
2019-03-30T08:05:11.597Z,12.54
2019-03-30T08:06:11.619Z,12.73
2019-03-30T08:07:11.630Z,12.91
2019-03-30T08:08:11.652Z,12.93
2019-03-30T08:09:11.661Z,12.97
2019-03-30T08:10:11.670Z,12.98
2019-03-30T08:11:14.252Z,13.01
2019-03-30T08:12:11.701Z,13.20
2019-03-30T08:13:11.717Z,13.19
2019-03-30T08:14:11.730Z,13.33
2019-03-30T08:15:11.744Z,13.23
2019-03-30T08:16:11.762Z,13.13
2019-03-30T08:17:11.786Z,13.12
2019-03-30T08:18:11.785Z,13.01
2019-03-30T08:19:11.803Z,13.08
2019-03-30T08:20:11.820Z,13.05
2019-03-30T08:21:11.831Z,13.15
2019-03-30T08:22:11.843Z,13.22
2019-03-30T08:23:11.866Z,13.28
2019-03-30T08:24:11.878Z,13.33
2019-03-30T08:25:11.894Z,13.63
2019-03-30T08:26:11.909Z,13.49
2019-03-30T08:27:11.926Z,13.37
2019-03-30T08:28:11.937Z,13.47
2019-03-30T08:29:11.953Z,13.47
2019-03-30T08:30:11.982Z,13.42
2019-03-30T08:31:11.974Z,13.56
2019-03-30T08:32:12.002Z,13.78
2019-03-30T08:33:12.020Z,13.71
2019-03-30T08:34:12.030Z,13.79
2019-03-30T08:35:12.046Z,13.79
2019-03-30T08:36:12.068Z,13.81
2019-03-30T08:37:12.075Z,13.93
2019-03-30T08:38:12.090Z,14.12
2019-03-30T08:39:12.112Z,14.20
2019-03-30T08:40:12.121Z,14.22
2019-03-30T08:41:12.247Z,14.03
2019-03-30T08:42:12.222Z,14.10
2019-03-30T08:43:12.176Z,14.20
2019-03-30T08:44:12.184Z,14.20
2019-03-30T08:45:12.223Z,14.36
2019-03-30T08:46:12.217Z,14.26
2019-03-30T08:47:12.234Z,14.26
2019-03-30T08:48:12.248Z,14.47
2019-03-30T08:49:12.266Z,14.50
2019-03-30T08:50:12.276Z,14.68
2019-03-30T08:51:12.288Z,14.81
2019-03-30T08:52:12.308Z,14.92
2019-03-30T08:53:12.319Z,14.96
2019-03-30T08:54:12.342Z,15.02
2019-03-30T08:55:12.356Z,15.15
2019-03-30T08:56:12.368Z,15.24
2019-03-30T08:57:12.388Z,15.28
2019-03-30T08:58:12.405Z,15.40
2019-03-30T08:59:12.496Z,15.37
2019-03-30T09:00:12.479Z,15.51
2019-03-30T09:01:12.447Z,15.52
2019-03-30T09:02:12.467Z,15.61
2019-03-30T09:03:12.486Z,15.65
2019-03-30T09:04:12.501Z,15.64
2019-03-30T09:05:12.527Z,15.77
2019-03-30T09:06:12.541Z,15.86
2019-03-30T09:07:12.545Z,15.90
2019-03-30T09:08:12.561Z,16.05
2019-03-30T09:09:12.575Z,16.09
2019-03-30T09:10:12.683Z,16.12
2019-03-30T09:11:12.607Z,16.20
2019-03-30T09:12:12.629Z,16.20
2019-03-30T09:13:12.635Z,16.29
2019-03-30T09:14:12.658Z,16.36
2019-03-30T09:15:12.674Z,16.38
2019-03-30T09:16:12.701Z,16.29
2019-03-30T09:17:12.707Z,16.38
2019-03-30T09:18:12.722Z,16.43
2019-03-30T09:19:12.741Z,16.38
2019-03-30T09:20:12.767Z,16.33
2019-03-30T09:21:12.782Z,16.20
2019-03-30T09:22:12.791Z,16.10
2019-03-30T09:23:12.803Z,16.21
2019-03-30T09:24:12.817Z,16.39
2019-03-30T09:25:12.844Z,16.56
2019-03-30T09:26:16.392Z,16.68
2019-03-30T09:27:12.873Z,16.76
2019-03-30T09:28:12.891Z,16.81
2019-03-30T09:29:12.909Z,16.76
2019-03-30T09:30:12.927Z,16.83
2019-03-30T09:31:12.939Z,16.83
2019-03-30T09:32:14.639Z,16.81
2019-03-30T09:33:12.971Z,16.89
2019-03-30T09:34:12.986Z,16.96
2019-03-30T09:35:13.006Z,16.96
2019-03-30T09:36:13.018Z,16.96
2019-03-30T09:37:13.129Z,17.15
2019-03-30T09:38:14.793Z,17.14
2019-03-30T09:39:13.080Z,17.11
2019-03-30T09:40:13.084Z,17.26
2019-03-30T09:41:13.108Z,17.39
2019-03-30T09:42:13.122Z,17.45
2019-03-30T09:43:13.140Z,17.52
2019-03-30T09:44:13.165Z,17.56
2019-03-30T09:45:13.175Z,17.54
2019-03-30T09:46:13.190Z,17.59
2019-03-30T09:47:13.201Z,17.60
2019-03-30T09:48:13.227Z,17.72
2019-03-30T09:49:13.251Z,17.76
2019-03-30T09:50:13.273Z,17.98
2019-03-30T09:51:13.273Z,18.07
2019-03-30T09:52:13.295Z,18.07
2019-03-30T09:53:13.314Z,18.13
2019-03-30T09:54:23.498Z,18.20
2019-03-30T09:55:13.340Z,18.28
2019-03-30T09:56:13.387Z,18.45
2019-03-30T09:57:13.376Z,18.50
2019-03-30T09:58:13.392Z,18.52
2019-03-30T09:59:13.411Z,18.63
2019-03-30T10:00:13.425Z,18.63
2019-03-30T10:01:13.447Z,18.62
2019-03-30T10:02:13.464Z,18.70
2019-03-30T10:03:13.480Z,18.71
2019-03-30T10:04:13.499Z,18.84
2019-03-30T10:05:13.528Z,18.89
2019-03-30T10:06:13.537Z,18.83
2019-03-30T10:07:13.549Z,18.83
2019-03-30T10:08:13.570Z,18.93
2019-03-30T10:09:13.606Z,19.16
2019-03-30T10:10:13.710Z,19.37
2019-03-30T10:11:13.626Z,19.51
2019-03-30T10:12:13.754Z,19.41
2019-03-30T10:13:13.668Z,19.51
2019-03-30T10:14:13.710Z,19.51
2019-03-30T10:15:13.704Z,19.74
2019-03-30T10:16:13.782Z,20.09
2019-03-30T10:17:13.747Z,20.22
2019-03-30T10:18:13.765Z,20.36
2019-03-30T10:19:13.788Z,20.62
2019-03-30T10:20:13.814Z,20.84
2019-03-30T10:21:13.828Z,20.92
2019-03-30T10:22:13.850Z,20.55
2019-03-30T10:23:13.873Z,20.75
2019-03-30T10:24:13.896Z,20.90
2019-03-30T10:25:13.910Z,20.97
2019-03-30T10:26:13.932Z,20.70
2019-03-30T10:27:13.954Z,20.16
2019-03-30T10:28:14.070Z,19.82
2019-03-30T10:29:13.994Z,20.06
2019-03-30T10:30:14.022Z,20.32
2019-03-30T10:31:14.036Z,20.56
2019-03-30T10:32:14.060Z,20.60
2019-03-30T10:33:14.076Z,20.60
2019-03-30T10:34:14.107Z,20.80
2019-03-30T10:35:14.128Z,20.72
2019-03-30T10:36:14.156Z,20.74
2019-03-30T10:37:14.175Z,20.90
2019-03-30T10:38:14.194Z,20.85
2019-03-30T10:39:14.262Z,20.82
2019-03-30T10:40:14.235Z,21.00
2019-03-30T10:41:14.258Z,20.97
2019-03-30T10:42:14.289Z,20.77
2019-03-30T10:43:14.298Z,20.74
2019-03-30T10:44:14.323Z,21.02
2019-03-30T10:45:14.347Z,21.51
2019-03-30T10:46:14.371Z,21.69
2019-03-30T10:47:14.387Z,21.67
2019-03-30T10:48:14.407Z,21.64
2019-03-30T10:49:14.431Z,21.50
2019-03-30T10:50:14.457Z,21.54
2019-03-30T10:51:14.481Z,21.57
2019-03-30T10:52:14.495Z,20.97
2019-03-30T10:53:14.524Z,20.88
2019-03-30T10:54:14.547Z,21.00
2019-03-30T10:55:14.566Z,21.05
2019-03-30T10:56:14.590Z,21.22
2019-03-30T10:57:14.609Z,20.92
2019-03-30T10:58:14.630Z,20.84
2019-03-30T10:59:14.658Z,21.11
2019-03-30T11:00:14.676Z,21.46
2019-03-30T11:01:14.703Z,21.62
2019-03-30T11:02:14.729Z,21.66
2019-03-30T11:03:14.754Z,21.33
2019-03-30T11:04:14.766Z,20.63
2019-03-30T11:05:14.788Z,20.95
2019-03-30T11:06:14.806Z,20.99
2019-03-30T11:07:14.836Z,21.25
2019-03-30T11:08:14.857Z,21.40
2019-03-30T11:09:14.878Z,21.32
2019-03-30T11:10:14.908Z,20.84
2019-03-30T11:11:14.937Z,20.19
2019-03-30T11:12:14.940Z,19.74
2019-03-30T11:13:14.965Z,19.40
2019-03-30T11:14:14.992Z,19.45
2019-03-30T11:15:15.014Z,19.81
2019-03-30T11:16:15.039Z,20.16
2019-03-30T11:17:15.050Z,20.16
2019-03-30T11:18:15.081Z,20.26
2019-03-30T11:19:15.100Z,20.06
2019-03-30T11:20:15.116Z,19.66
2019-03-30T11:21:15.138Z,19.59
2019-03-30T11:22:15.173Z,19.63
2019-03-30T11:23:15.182Z,19.51
2019-03-30T11:24:15.199Z,19.29
2019-03-30T11:25:15.235Z,19.77
2019-03-30T11:26:15.249Z,20.16
2019-03-30T11:27:15.266Z,20.50
2019-03-30T11:28:16.032Z,20.14
2019-03-30T11:29:15.376Z,20.04
2019-03-30T11:30:15.334Z,20.43
2019-03-30T11:31:15.340Z,20.75
2019-03-30T11:32:15.372Z,21.20
2019-03-30T11:33:15.388Z,21.80
2019-03-30T11:34:15.410Z,21.99
2019-03-30T11:35:15.431Z,21.33
2019-03-30T11:36:18.454Z,21.21
2019-03-30T11:37:15.472Z,21.80
2019-03-30T11:38:15.495Z,22.39
2019-03-30T11:39:15.513Z,22.66
2019-03-30T11:40:15.531Z,22.48
2019-03-30T11:41:15.557Z,22.60
2019-03-30T11:42:15.638Z,22.68
2019-03-30T11:43:15.598Z,22.55
2019-03-30T11:44:15.614Z,22.54
2019-03-30T11:45:15.644Z,23.10
2019-03-30T11:46:15.678Z,23.02
2019-03-30T11:47:15.686Z,22.94
2019-03-30T11:48:15.722Z,23.54
2019-03-30T11:49:15.725Z,23.69
2019-03-30T11:50:15.854Z,23.39
2019-03-30T11:51:15.768Z,22.75
2019-03-30T11:52:15.806Z,22.17
2019-03-30T11:53:15.809Z,21.62
2019-03-30T11:54:15.865Z,21.25
2019-03-30T11:55:21.985Z,21.11
2019-03-30T11:56:15.878Z,21.18
2019-03-30T11:57:15.905Z,21.67
2019-03-30T11:58:15.924Z,22.02
2019-03-30T11:59:15.956Z,22.28
2019-03-30T12:00:15.996Z,22.29
2019-03-30T12:01:16.008Z,22.43
2019-03-30T12:02:27.213Z,22.30
2019-03-30T12:03:16.040Z,22.39
2019-03-30T12:04:16.064Z,22.75
2019-03-30T12:05:16.088Z,22.59
2019-03-30T12:06:16.110Z,22.32
2019-03-30T12:07:16.128Z,22.41
2019-03-30T12:08:16.161Z,22.94
2019-03-30T12:09:16.220Z,23.03
2019-03-30T12:10:16.200Z,23.56
2019-03-30T12:11:16.251Z,23.86
2019-03-30T12:12:16.245Z,23.86
2019-03-30T12:13:16.275Z,23.99
2019-03-30T12:14:16.296Z,24.20
2019-03-30T12:15:16.350Z,24.08
2019-03-30T12:16:16.335Z,23.62
2019-03-30T12:17:16.364Z,23.63
2019-03-30T12:18:16.381Z,23.91
2019-03-30T12:19:16.485Z,23.08
2019-03-30T12:20:16.431Z,22.66
2019-03-30T12:21:16.451Z,22.55
2019-03-30T12:22:16.493Z,22.44
2019-03-30T12:23:16.503Z,22.04
2019-03-30T12:24:16.537Z,22.30
2019-03-30T12:25:16.545Z,22.15
2019-03-30T12:26:16.568Z,21.69
2019-03-30T12:27:16.595Z,22.41
2019-03-30T12:28:16.621Z,23.00
2019-03-30T12:29:16.656Z,22.84
2019-03-30T12:30:16.661Z,22.94
2019-03-30T12:31:16.689Z,22.87
2019-03-30T12:32:16.715Z,22.87
2019-03-30T12:33:17.625Z,23.23
2019-03-30T12:34:16.762Z,22.96
2019-03-30T12:35:16.781Z,22.78
2019-03-30T12:36:16.803Z,23.06
2019-03-30T12:37:16.829Z,23.36
2019-03-30T12:38:16.883Z,23.34
2019-03-30T12:39:16.881Z,23.88
2019-03-30T12:40:16.906Z,23.80
2019-03-30T12:41:16.930Z,23.88
2019-03-30T12:42:16.962Z,23.86
2019-03-30T12:43:16.983Z,23.95
2019-03-30T12:44:16.993Z,23.50
2019-03-30T12:45:17.018Z,23.66
2019-03-30T12:46:17.043Z,23.18
2019-03-30T12:47:17.068Z,23.32
2019-03-30T12:48:17.090Z,23.27
2019-03-30T12:50:17.175Z,22.53
2019-03-30T12:51:17.160Z,22.72
2019-03-30T12:52:17.188Z,23.09
2019-03-30T12:53:17.210Z,23.18
2019-03-30T12:54:17.247Z,23.13
2019-03-30T12:55:17.268Z,23.36
2019-03-30T12:56:17.291Z,22.50
2019-03-30T12:57:17.306Z,22.68
2019-03-30T12:58:17.338Z,23.15
2019-03-30T12:59:17.362Z,23.27
2019-03-30T13:00:17.380Z,23.15
2019-03-30T13:01:17.402Z,23.56
2019-03-30T13:02:17.428Z,23.32